Time;durP1;ratioP1;P1;durP2;ratioP2;P2;SDS_P1;SDS_P2;PMS_P1;PMS_P2;Temp;Humidity;BMP_temperature;BMP_pressure;BME280_temperature;BME280_humidity;BME280_pressure;Samples;Min_cycle;Max_cycle;Signal;HPM_P1;HPM_P2
2022/06/22 06:45:54;;;;;;;8.50;5.90;;;26.70;99.90;;;;;;4977658;23;20060;-80
2022/06/22 06:48:25;;;;;;;12.73;6.60;;;26.70;99.80;;;;;;5013562;28;20159;-80
2022/06/22 06:50:54;;;;;;;14.82;6.00;;;26.70;99.90;;;;;;5032409;28;20033;-80
2022/06/22 06:53:55;;;;;;;12.93;6.85;;;26.70;99.60;;;;;;5032860;28;20059;-80
2022/06/22 06:56:41;;;;;;;12.95;6.15;;;26.80;99.40;;;;;;5001747;23;20186;-76
2022/06/22 06:59:29;;;;;;;12.50;6.28;;;26.90;99.50;;;;;;4991850;28;20034;-79
2022/06/22 07:01:59;;;;;;;14.48;6.03;;;26.90;99.60;;;;;;4974687;28;20027;-77
2022/06/22 07:04:29;;;;;;;13.15;6.97;;;26.90;99.60;;;;;;4992076;28;20026;-80
2022/06/22 07:07:36;;;;;;;8.80;5.63;;;26.90;98.50;;;;;;4975246;28;20046;-76
2022/06/22 07:10:18;;;;;;;14.88;6.30;;;26.90;98.60;;;;;;4992083;28;20022;-80
2022/06/22 07:12:57;;;;;;;18.17;5.93;;;27.00;98.70;;;;;;4990348;28;20113;-79
2022/06/22 07:15:33;;;;;;;15.95;6.50;;;27.00;99.30;;;;;;4993041;28;20029;-79
2022/06/22 07:18:08;;;;;;;11.75;5.80;;;27.00;98.70;;;;;;4992914;28;20022;-80
2022/06/22 07:20:40;;;;;;;11.65;6.72;;;27.10;98.70;;;;;;4993060;28;20023;-80
2022/06/22 07:23:15;;;;;;;8.10;5.63;;;27.20;98.10;;;;;;4993390;28;20026;-79
2022/06/22 07:25:46;;;;;;;9.80;5.55;;;27.20;98.10;;;;;;4993734;28;20023;-80
2022/06/22 07:28:18;;;;;;;13.20;7.43;;;27.30;98.80;;;;;;4994045;28;20690;-80
2022/06/22 07:30:59;;;;;;;8.98;6.40;;;27.40;99.00;;;;;;4975796;28;20022;-80
2022/06/22 07:34:09;;;;;;;16.05;7.97;;;27.40;99.00;;;;;;4978443;28;20562;-80
2022/06/22 07:36:44;;;;;;;14.55;7.60;;;27.30;98.50;;;;;;4959823;28;20034;-76
2022/06/22 07:39:33;;;;;;;10.52;6.50;;;27.20;98.40;;;;;;4995292;28;20540;-76
2022/06/22 07:41:59;;;;;;;9.63;6.30;;;27.20;99.00;;;;;;4995211;28;20027;-76
2022/06/22 07:44:31;;;;;;;6.80;6.13;;;27.20;98.90;;;;;;4995345;28;20108;-77
2022/06/22 07:47:08;;;;;;;8.20;6.10;;;27.20;98.70;;;;;;4995117;28;20027;-73
2022/06/22 07:49:56;;;;;;;11.10;6.55;;;27.30;98.90;;;;;;4994944;28;20087;-76
2022/06/22 07:52:27;;;;;;;9.32;6.68;;;27.30;99.90;;;;;;4977379;28;20340;-76
2022/06/22 07:55:03;;;;;;;9.70;6.28;;;27.30;99.90;;;;;;4977428;28;20443;-76
2022/06/22 07:57:39;;;;;;;11.13;7.00;;;27.30;99.90;;;;;;4971215;28;20058;-76
2022/06/22 08:00:14;;;;;;;19.25;7.75;;;27.30;99.90;;;;;;4990154;28;20033;-76
2022/06/22 08:02:52;;;;;;;14.32;8.32;;;27.30;99.90;;;;;;4990734;28;20117;-77
2022/06/22 08:05:23;;;;;;;8.68;7.32;;;27.30;99.90;;;;;;4991558;28;20053;-80
2022/06/22 08:08:00;;;;;;;19.23;7.95;;;27.30;99.90;;;;;;4992088;28;20031;-80
2022/06/22 08:10:38;;;;;;;11.80;7.78;;;27.30;99.90;;;;;;4991136;28;20023;-77
2022/06/22 08:13:19;;;;;;;14.55;7.25;;;27.10;99.90;;;;;;4989991;28;20096;-76
2022/06/22 08:15:55;;;;;;;15.73;8.60;;;27.10;99.90;;;;;;4973216;28;20049;-76
2022/06/22 08:18:20;;;;;;;11.70;7.95;;;27.00;99.90;;;;;;4992013;28;20033;-76
2022/06/22 08:20:49;;;;;;;13.10;7.90;;;26.90;99.90;;;;;;4995780;28;20026;-76
2022/06/22 08:23:20;;;;;;;14.85;8.70;;;26.60;99.90;;;;;;4994629;28;20029;-76
2022/06/22 08:25:48;;;;;;;14.40;8.48;;;26.50;99.90;;;;;;4990542;28;20046;-76
2022/06/22 08:28:18;;;;;;;11.95;8.82;;;26.30;99.90;;;;;;4989821;28;20029;-76
2022/06/22 08:30:45;;;;;;;16.40;8.70;;;26.30;99.90;;;;;;4977300;28;20025;-74
2022/06/22 08:33:15;;;;;;;20.10;9.35;;;26.30;99.90;;;;;;5009179;28;20651;-75
2022/06/22 08:35:53;;;;;;;18.50;9.20;;;26.30;99.90;;;;;;4988813;28;20030;-74
2022/06/22 08:38:38;;;;;;;11.07;8.43;;;26.30;99.90;;;;;;4971981;28;20026;-75
2022/06/22 08:41:12;;;;;;;12.63;8.90;;;26.20;99.90;;;;;;4989508;28;20019;-73
2022/06/22 08:44:00;;;;;;;13.20;8.73;;;26.10;99.90;;;;;;4988895;28;20026;-74
2022/06/22 08:46:53;;;;;;;10.13;7.85;;;26.00;99.90;;;;;;4989586;28;20034;-76
2022/06/22 08:49:33;;;;;;;9.45;8.50;;;26.10;99.90;;;;;;4988837;28;20031;-74
2022/06/22 08:52:13;;;;;;;10.50;7.53;;;26.10;99.90;;;;;;4989128;28;20384;-74
2022/06/22 08:54:41;;;;;;;12.50;8.32;;;26.20;99.90;;;;;;4988801;28;20031;-75
2022/06/22 08:57:27;;;;;;;16.55;7.85;;;26.20;99.90;;;;;;4971692;28;20081;-74
2022/06/22 09:00:08;;;;;;;10.65;7.18;;;26.30;99.90;;;;;;4988717;28;20061;-74
2022/06/22 09:03:11;;;;;;;9.32;6.70;;;26.30;99.90;;;;;;4988398;28;20028;-74
2022/06/22 09:06:16;;;;;;;11.80;6.57;;;26.50;99.90;;;;;;4991055;28;20104;-75
2022/06/22 09:08:59;;;;;;;7.07;5.88;;;26.60;99.90;;;;;;4948984;28;20046;-74
2022/06/22 09:11:36;;;;;;;9.13;7.00;;;26.70;99.90;;;;;;4971253;28;20169;-75
2022/06/22 09:14:16;;;;;;;8.38;6.50;;;26.70;99.90;;;;;;4989019;28;20029;-74
2022/06/22 09:17:19;;;;;;;13.70;7.25;;;26.80;99.90;;;;;;4988654;28;20023;-75
2022/06/22 09:20:07;;;;;;;8.50;6.43;;;27.00;99.90;;;;;;4989316;28;20026;-76
2022/06/22 09:22:56;;;;;;;11.90;7.05;;;27.10;99.90;;;;;;4988457;28;20023;-76
2022/06/22 09:25:58;;;;;;;12.75;6.18;;;27.20;99.90;;;;;;4970709;28;20522;-77
2022/06/22 09:28:29;;;;;;;10.98;5.75;;;27.20;99.90;;;;;;4960969;28;20410;-74
2022/06/22 09:31:19;;;;;;;10.60;6.00;;;27.20;99.90;;;;;;4988827;28;20030;-76
2022/06/22 09:33:59;;;;;;;9.77;5.75;;;27.30;99.90;;;;;;4987401;28;20083;-73
2022/06/22 09:37:04;;;;;;;8.55;5.35;;;27.30;99.90;;;;;;4966293;28;20045;-75
2022/06/22 09:39:52;;;;;;;8.48;6.45;;;27.50;99.90;;;;;;4987257;28;20069;-76
2022/06/22 09:42:35;;;;;;;14.35;7.93;;;27.60;99.90;;;;;;4988229;28;20033;-76
2022/06/22 09:45:23;;;;;;;11.93;8.05;;;27.70;99.90;;;;;;4960351;28;20450;-75
2022/06/22 09:47:51;;;;;;;15.45;8.98;;;27.70;99.90;;;;;;4976615;28;20030;-76
2022/06/22 09:50:48;;;;;;;13.77;9.02;;;27.70;99.90;;;;;;4970829;28;20022;-77
2022/06/22 09:54:02;;;;;;;20.60;9.68;;;27.70;99.90;;;;;;4986114;28;20175;-76
2022/06/22 09:57:01;;;;;;;16.60;9.00;;;27.80;99.90;;;;;;4941411;28;20073;-76
2022/06/22 09:59:46;;;;;;;17.48;10.43;;;27.80;99.90;;;;;;4970084;28;20022;-76
2022/06/22 10:02:31;;;;;;;18.52;9.18;;;27.70;99.90;;;;;;4987388;28;20034;-76
2022/06/22 10:05:29;;;;;;;16.05;10.38;;;27.70;99.90;;;;;;4969990;28;20033;-76
2022/06/22 10:08:22;;;;;;;21.00;10.10;;;27.70;99.90;;;;;;4984652;28;20061;-77
2022/06/22 10:11:13;;;;;;;14.32;8.63;;;27.90;99.90;;;;;;4987680;28;20601;-76
2022/06/22 10:14:16;;;;;;;18.65;9.18;;;28.00;99.90;;;;;;4985654;28;20078;-76
2022/06/22 10:17:03;;;;;;;17.85;9.63;;;28.10;99.90;;;;;;4984543;28;20089;-77
2022/06/22 10:19:41;;;;;;;18.88;9.27;;;28.10;99.90;;;;;;4973916;28;20045;-76
2022/06/22 10:22:35;;;;;;;14.88;8.45;;;28.10;99.90;;;;;;4964424;28;20026;-77
2022/06/22 10:25:10;;;;;;;22.13;8.70;;;28.10;99.90;;;;;;4973718;28;20117;-77
2022/06/22 10:27:54;;;;;;;21.02;8.48;;;28.10;99.90;;;;;;4963994;28;20411;-76
2022/06/22 10:30:47;;;;;;;20.10;9.35;;;28.00;99.90;;;;;;4989374;28;20081;-76
2022/06/22 10:33:35;;;;;;;17.92;9.07;;;28.00;99.90;;;;;;4972342;28;20430;-77
2022/06/22 10:36:27;;;;;;;12.40;7.15;;;28.00;99.90;;;;;;4971950;28;20082;-75
2022/06/22 10:39:14;;;;;;;8.93;7.30;;;28.00;99.90;;;;;;4972189;28;20019;-76
2022/06/22 10:45:09;;;;;;;10.57;6.35;;;28.00;99.90;;;;;;4972154;28;20419;-75
2022/06/22 10:47:56;;;;;;;9.60;6.30;;;28.10;99.90;;;;;;4954521;28;20027;-75
2022/06/22 10:50:31;;;;;;;15.38;7.35;;;28.10;99.90;;;;;;4954754;28;20027;-75
2022/06/22 10:53:11;;;;;;;9.40;6.57;;;28.10;99.90;;;;;;4971852;28;20104;-76
2022/06/22 10:56:09;;;;;;;11.15;7.18;;;28.20;99.90;;;;;;4971743;28;20045;-75
2022/06/22 10:58:53;;;;;;;13.77;7.10;;;28.40;99.90;;;;;;4953138;28;20082;-76
2022/06/22 11:01:34;;;;;;;11.07;7.38;;;28.60;99.90;;;;;;4987460;28;20050;-75
2022/06/22 11:04:27;;;;;;;12.32;7.50;;;28.70;99.90;;;;;;5004394;28;20041;-75
2022/06/22 11:07:09;;;;;;;9.38;7.43;;;29.00;99.90;;;;;;4989011;28;20462;-75
2022/06/22 11:09:52;;;;;;;14.15;8.02;;;29.10;99.70;;;;;;5006950;28;20022;-75
2022/06/22 11:12:48;;;;;;;10.20;7.55;;;29.10;98.20;;;;;;4989598;28;20497;-75
2022/06/22 11:15:23;;;;;;;21.83;8.35;;;29.00;98.30;;;;;;5006244;28;20033;-76
2022/06/22 11:18:10;;;;;;;11.68;8.40;;;28.90;97.70;;;;;;5006338;28;20510;-82
2022/06/22 11:20:53;;;;;;;13.05;7.32;;;28.90;98.00;;;;;;5006594;28;20622;-83
2022/06/22 11:23:41;;;;;;;11.15;8.43;;;29.00;98.60;;;;;;5006964;28;20452;-82
2022/06/22 11:32:25;;;;;;;;;;;29.10;98.10;;;;;;4952047;28;20117;-82
2022/06/22 11:35:40;;;;;;;12.25;8.98;;;29.20;98.90;;;;;;4986931;28;19997;-81
2022/06/22 11:38:24;;;;;;;15.75;8.13;;;29.30;97.50;;;;;;4984457;28;20069;-82
2022/06/22 11:40:53;;;;;;;15.02;8.65;;;29.60;98.10;;;;;;4986507;28;20030;-81
2022/06/22 11:43:27;;;;;;;15.98;9.10;;;29.80;97.60;;;;;;4969769;28;20112;-78
2022/06/22 11:46:17;;;;;;;14.25;8.38;;;30.00;97.60;;;;;;4969354;28;20069;-78
2022/06/22 11:48:56;;;;;;;12.25;8.13;;;30.10;97.70;;;;;;4969987;28;20073;-80
2022/06/22 11:51:42;;;;;;;16.00;8.60;;;30.00;97.00;;;;;;4987213;28;20026;-80
2022/06/22 11:54:36;;;;;;;15.32;8.57;;;29.90;95.90;;;;;;4969098;28;20476;-79
2022/06/22 11:57:38;;;;;;;12.52;8.38;;;30.00;95.40;;;;;;4970534;28;20052;-80
2022/06/22 12:00:06;;;;;;;;;;;30.10;95.50;;;;;;4973478;28;20030;-82
2022/06/22 12:02:45;;;;;;;11.55;7.18;;;30.20;95.50;;;;;;4990449;28;20378;-79
2022/06/22 12:05:29;;;;;;;7.80;6.78;;;30.20;94.60;;;;;;4990282;28;20030;-81
2022/06/22 12:08:13;;;;;;;10.98;7.40;;;30.40;95.20;;;;;;4989056;28;20030;-80
2022/06/22 12:11:04;;;;;;;10.00;7.45;;;30.60;94.60;;;;;;4972572;28;20456;-82
2022/06/22 12:16:44;;;;;;;10.73;7.63;;;30.70;94.20;;;;;;4991477;28;20040;-80
2022/06/22 12:19:31;;;;;;;12.48;6.78;;;30.60;93.70;;;;;;4968881;28;20026;-80
2022/06/22 12:22:09;;;;;;;14.38;6.65;;;30.70;93.60;;;;;;4990441;28;20037;-79
2022/06/22 12:24:47;;;;;;;13.85;8.00;;;30.80;93.70;;;;;;4991188;28;20038;-78
2022/06/22 12:27:18;;;;;;;9.70;6.22;;;30.80;92.40;;;;;;4991239;28;20026;-78
2022/06/22 12:30:16;;;;;;;28.58;8.32;;;30.90;92.90;;;;;;4990692;28;20102;-77
2022/06/22 12:33:05;;;;;;;13.23;7.70;;;30.70;92.10;;;;;;4945515;28;20031;-76
2022/06/22 12:35:42;;;;;;;15.55;8.63;;;30.70;92.70;;;;;;4993467;28;20500;-76
2022/06/22 12:38:34;;;;;;;10.90;7.82;;;30.60;91.80;;;;;;4976390;28;20026;-76
2022/06/22 12:41:22;;;;;;;11.65;6.70;;;30.60;92.60;;;;;;4984417;28;20384;-76
2022/06/22 12:44:27;;;;;;;11.55;6.82;;;30.80;92.20;;;;;;4993496;28;20076;-76
2022/06/22 12:47:20;;;;;;;13.18;8.27;;;30.90;91.00;;;;;;4995716;28;20456;-76
2022/06/22 12:49:58;;;;;;;12.18;7.88;;;30.90;91.10;;;;;;4995449;28;20061;-76
2022/06/22 12:52:32;;;;;;;10.32;7.68;;;30.90;91.50;;;;;;4995570;28;20037;-77
2022/06/22 12:55:07;;;;;;;10.68;8.48;;;30.90;92.00;;;;;;4995412;28;20650;-77
2022/06/22 12:57:41;;;;;;;13.20;7.43;;;30.80;91.70;;;;;;4995472;28;20050;-77
2022/06/22 13:00:07;;;;;;;9.48;7.75;;;30.80;92.70;;;;;;4995455;28;20435;-77
2022/06/22 13:02:36;;;;;;;10.88;7.80;;;30.70;92.10;;;;;;4995274;28;20026;-77
2022/06/22 13:05:31;;;;;;;33.13;10.02;;;30.80;92.50;;;;;;4994940;28;20038;-77
2022/06/22 13:08:04;;;;;;;35.83;21.40;;;30.80;92.30;;;;;;4994633;28;20022;-77
2022/06/22 13:10:42;;;;;;;21.92;9.35;;;30.70;90.70;;;;;;4995169;28;20080;-78
2022/06/22 13:13:20;;;;;;;24.02;8.13;;;30.50;91.80;;;;;;4995226;28;20054;-77
2022/06/22 13:16:06;;;;;;;13.05;8.77;;;30.50;91.00;;;;;;4995095;28;20029;-77
2022/06/22 13:18:43;;;;;;;12.75;7.18;;;30.50;90.50;;;;;;4977535;28;20026;-77
2022/06/22 13:21:31;;;;;;;8.82;7.60;;;30.50;90.80;;;;;;4994946;28;20041;-76
2022/06/22 13:24:11;;;;;;;10.50;7.30;;;30.50;91.00;;;;;;4994938;28;20022;-77
2022/06/22 13:26:57;;;;;;;8.68;6.80;;;30.40;90.60;;;;;;4994938;28;20022;-77
2022/06/22 13:29:46;;;;;;;11.60;7.60;;;30.40;90.60;;;;;;4993291;28;20023;-77
2022/06/22 13:32:13;;;;;;;11.55;6.50;;;30.30;91.00;;;;;;4994777;28;20076;-77
2022/06/22 13:34:59;;;;;;;12.07;6.88;;;30.30;91.20;;;;;;4994789;28;20030;-77
2022/06/22 13:38:03;;;;;;;9.25;6.50;;;30.30;91.00;;;;;;4977288;28;20454;-77
2022/06/22 13:40:50;;;;;;;16.17;7.03;;;30.40;91.20;;;;;;4966184;28;20045;-77
2022/06/22 13:43:16;;;;;;;14.48;6.60;;;30.40;91.20;;;;;;4992535;28;20038;-74
2022/06/22 13:45:51;;;;;;;11.10;6.60;;;30.30;90.80;;;;;;4993118;28;20027;-73
2022/06/22 13:48:27;;;;;;;8.75;6.72;;;30.30;90.90;;;;;;4993661;28;20057;-73
2022/06/22 13:54:00;;;;;;;7.35;6.43;;;30.30;91.30;;;;;;4993717;28;20035;-73
2022/06/22 13:56:38;;;;;;;7.57;6.57;;;30.30;91.30;;;;;;4970457;28;20052;-73
2022/06/22 13:59:16;;;;;;;11.18;6.78;;;30.30;91.00;;;;;;4975564;28;20376;-73
2022/06/22 14:01:49;;;;;;;12.80;6.90;;;30.30;90.70;;;;;;4976382;28;20100;-77
2022/06/22 14:04:28;;;;;;;12.10;6.88;;;30.30;90.90;;;;;;4994389;28;20112;-77
2022/06/22 14:07:05;;;;;;;11.63;6.60;;;30.40;91.30;;;;;;4994036;28;20392;-77
2022/06/22 14:09:49;;;;;;;12.30;7.07;;;30.50;91.40;;;;;;4993994;28;20058;-76
2022/06/22 14:12:14;;;;;;;11.15;7.65;;;30.70;91.40;;;;;;4994219;28;20105;-77
2022/06/22 14:15:05;;;;;;;13.65;7.65;;;30.50;91.20;;;;;;4994125;28;20105;-77
2022/06/22 14:17:40;;;;;;;11.95;7.47;;;30.50;90.50;;;;;;4994363;28;20030;-77
2022/06/22 14:20:24;;;;;;;8.60;7.80;;;30.40;90.80;;;;;;4993723;28;20081;-77
2022/06/22 14:23:01;;;;;;;12.90;7.38;;;30.20;90.70;;;;;;4994099;28;20460;-77
2022/06/22 14:25:42;;;;;;;11.23;6.95;;;30.20;90.90;;;;;;4993867;28;20096;-77
2022/06/22 14:28:25;;;;;;;13.02;7.85;;;30.20;92.00;;;;;;4993835;28;20027;-77
2022/06/22 14:31:12;;;;;;;10.23;7.40;;;30.20;91.90;;;;;;4993691;28;20105;-77
2022/06/22 14:33:56;;;;;;;10.43;7.75;;;30.10;91.50;;;;;;4976338;28;20073;-77
2022/06/22 14:36:38;;;;;;;19.40;7.68;;;30.10;91.00;;;;;;4992210;28;20109;-77
2022/06/22 14:39:10;;;;;;;13.95;6.82;;;30.20;91.00;;;;;;4992465;28;20030;-77
2022/06/22 14:42:01;;;;;;;10.88;7.20;;;30.10;91.20;;;;;;4992126;28;20041;-77
2022/06/22 14:44:53;;;;;;;13.60;6.90;;;30.10;90.70;;;;;;4991941;28;20033;-77
2022/06/22 14:47:29;;;;;;;;;;;30.00;91.40;;;;;;4947660;28;20072;-77
2022/06/22 14:50:14;;;;;;;11.13;6.50;;;30.00;92.20;;;;;;4992056;28;19977;-77
2022/06/22 14:52:47;;;;;;;10.55;6.88;;;30.00;92.00;;;;;;4991956;28;20034;-77
2022/06/22 14:55:28;;;;;;;7.88;6.38;;;29.90;91.70;;;;;;4991757;28;20084;-77
2022/06/22 14:58:12;;;;;;;7.25;6.50;;;29.90;91.90;;;;;;4992041;28;20296;-77
2022/06/22 15:00:52;;;;;;;13.70;6.85;;;29.90;92.10;;;;;;4974283;28;20133;-77
2022/06/22 15:03:28;;;;;;;6.63;5.10;;;29.80;91.60;;;;;;4991877;28;20022;-77
2022/06/22 15:06:25;;;;;;;9.73;5.28;;;29.80;92.00;;;;;;4991971;28;20025;-77
2022/06/22 15:09:21;;;;;;;7.50;5.82;;;29.80;90.90;;;;;;4994347;28;20022;-73
2022/06/22 15:14:57;;;;;;;7.55;5.75;;;29.80;91.10;;;;;;5011615;28;20040;-77
2022/06/22 15:17:33;;;;;;;8.98;6.18;;;29.70;91.00;;;;;;5011575;28;20036;-77
2022/06/22 15:20:22;;;;;;;12.95;5.55;;;29.70;90.70;;;;;;5011428;28;20029;-77
2022/06/22 15:22:54;;;;;;;9.80;5.30;;;29.70;91.10;;;;;;5011280;28;20029;-77
2022/06/22 15:25:59;;;;;;;8.52;5.53;;;29.70;91.70;;;;;;5011121;28;20022;-77
2022/06/22 15:28:46;;;;;;;8.07;5.50;;;29.50;91.90;;;;;;5011246;28;20506;-77
2022/06/22 15:31:27;;;;;;;13.23;5.82;;;29.50;91.60;;;;;;4993649;28;20026;-77
2022/06/22 15:34:33;;;;;;;11.45;5.78;;;29.50;91.70;;;;;;5014855;28;20388;-77
2022/06/22 15:37:11;;;;;;;6.93;5.18;;;29.30;92.00;;;;;;4992656;28;20046;-77
2022/06/22 15:39:43;;;;;;;8.43;5.78;;;29.30;91.90;;;;;;5014802;28;20033;-77
2022/06/22 15:42:15;;;;;;;8.93;5.80;;;29.30;91.60;;;;;;5014834;28;20368;-77
2022/06/22 15:44:46;;;;;;;11.23;5.78;;;29.20;92.20;;;;;;5014762;28;20022;-77
2022/06/22 15:47:37;;;;;;;15.40;5.30;;;29.20;92.40;;;;;;5014619;28;20045;-77
2022/06/22 15:51:04;;;;;;;8.77;5.00;;;29.20;93.10;;;;;;5014825;28;20057;-77
2022/06/22 15:53:46;;;;;;;9.10;5.93;;;29.10;92.40;;;;;;4943673;29;20054;-77
2022/06/22 15:56:44;;;;;;;14.95;5.30;;;29.10;92.50;;;;;;5008405;28;20046;-77
2022/06/22 15:59:26;;;;;;;11.60;5.35;;;29.10;92.60;;;;;;4970694;28;20515;-76
2022/06/22 16:02:23;;;;;;;10.63;4.78;;;28.90;92.40;;;;;;4997256;28;20026;-77
2022/06/22 16:05:06;;;;;;;7.32;4.57;;;28.90;92.60;;;;;;4977458;28;20049;-77
2022/06/22 16:07:41;;;;;;;11.70;5.05;;;28.80;92.30;;;;;;5014811;28;20495;-77
2022/06/22 16:10:13;;;;;;;6.50;4.32;;;28.80;92.50;;;;;;5014574;28;20064;-76
2022/06/22 16:13:27;;;;;;;6.88;4.82;;;28.70;92.50;;;;;;4996678;28;20582;-77
2022/06/22 16:16:07;;;;;;;6.85;4.95;;;28.70;92.40;;;;;;5014322;28;20545;-77
2022/06/22 16:18:59;;;;;;;7.63;5.03;;;28.70;92.40;;;;;;5014332;28;20055;-77
2022/06/22 16:21:54;;;;;;;11.07;5.47;;;28.60;92.80;;;;;;5014266;28;20022;-77
2022/06/22 16:24:39;;;;;;;13.50;5.57;;;28.60;93.90;;;;;;5012026;28;20064;-77
2022/06/22 16:27:13;;;;;;;6.03;5.10;;;28.50;95.10;;;;;;4996421;28;20471;-77
2022/06/22 16:30:06;;;;;;;9.50;5.53;;;28.40;97.70;;;;;;4996609;28;20483;-77
2022/06/22 16:32:52;;;;;;;10.07;5.32;;;28.30;97.40;;;;;;5010754;28;20441;-77
2022/06/22 16:35:53;;;;;;;12.68;5.15;;;28.30;98.20;;;;;;4996488;28;20034;-77
2022/06/22 16:38:28;;;;;;;10.70;5.40;;;28.30;98.60;;;;;;4996289;28;20120;-77
2022/06/22 16:41:00;;;;;;;11.25;5.95;;;28.30;99.10;;;;;;5013926;28;20089;-77
2022/06/22 16:43:35;;;;;;;7.63;5.05;;;28.30;98.60;;;;;;5013512;28;20026;-77
2022/06/22 16:46:09;;;;;;;8.52;5.40;;;28.30;98.50;;;;;;5013616;28;20514;-77
2022/06/22 16:48:39;;;;;;;8.65;5.25;;;28.30;97.60;;;;;;5014011;28;20033;-77
2022/06/22 16:51:10;;;;;;;7.17;5.77;;;28.30;96.10;;;;;;4996107;28;20022;-76
2022/06/22 16:53:42;;;;;;;10.93;6.20;;;28.30;95.80;;;;;;5013630;28;20030;-76
2022/06/22 16:56:17;;;;;;;5.60;5.10;;;28.20;95.50;;;;;;5013188;28;20053;-77
2022/06/22 16:58:47;;;;;;;10.73;5.10;;;28.20;95.90;;;;;;5013678;28;20427;-77
2022/06/22 17:01:16;;;;;;;8.77;4.65;;;28.20;95.70;;;;;;5013520;28;20049;-77
2022/06/22 17:03:49;;;;;;;5.38;4.90;;;28.20;95.50;;;;;;5010283;28;20506;-77
2022/06/22 17:06:47;;;;;;;10.95;5.22;;;28.20;96.40;;;;;;5013291;28;20026;-77
2022/06/22 17:09:31;;;;;;;9.48;4.65;;;28.10;96.00;;;;;;5013411;28;20101;-77
2022/06/22 17:12:03;;;;;;;6.53;5.35;;;28.10;96.60;;;;;;5013225;28;20045;-77
2022/06/22 17:14:33;;;;;;;8.82;5.78;;;28.10;97.40;;;;;;5013180;28;20025;-76
2022/06/22 17:17:12;;;;;;;10.20;4.93;;;28.10;97.50;;;;;;5013076;28;20392;-77
2022/06/22 17:19:53;;;;;;;9.48;5.82;;;28.10;97.00;;;;;;4995420;28;20030;-77
2022/06/22 17:22:42;;;;;;;10.85;5.55;;;28.10;96.90;;;;;;5013019;28;20527;-77
2022/06/22 17:25:14;;;;;;;8.25;4.85;;;28.00;96.80;;;;;;5011990;28;20585;-77
2022/06/22 17:27:59;;;;;;;9.68;5.55;;;28.10;96.60;;;;;;5012945;28;20107;-77
2022/06/22 17:30:39;;;;;;;10.43;5.70;;;28.00;96.20;;;;;;5012814;28;20112;-77
2022/06/22 17:33:13;;;;;;;9.95;5.07;;;28.00;96.00;;;;;;5012819;28;20056;-77
2022/06/22 17:35:51;;;;;;;10.82;5.90;;;28.00;96.20;;;;;;4995247;28;20041;-77
2022/06/22 17:38:45;;;;;;;7.15;5.35;;;28.00;96.40;;;;;;4994925;28;20033;-77
2022/06/22 17:41:21;;;;;;;8.38;5.45;;;28.00;96.10;;;;;;5012720;28;20026;-77
2022/06/22 17:43:59;;;;;;;17.08;5.53;;;28.00;95.80;;;;;;5013415;28;20029;-77
2022/06/22 17:46:26;;;;;;;12.55;6.70;;;28.00;95.80;;;;;;4996161;28;20458;-77
2022/06/22 17:49:01;;;;;;;20.08;6.10;;;28.00;95.90;;;;;;5013659;28;20056;-77
2022/06/22 17:51:32;;;;;;;42.38;7.47;;;28.00;95.70;;;;;;5013602;28;20458;-77
2022/06/22 17:54:24;;;;;;;20.80;5.72;;;28.00;95.70;;;;;;5013707;28;20028;-76
2022/06/22 17:56:52;;;;;;;11.02;4.97;;;28.00;95.20;;;;;;4985698;28;20095;-77
2022/06/22 17:59:25;;;;;;;9.57;5.45;;;28.00;95.20;;;;;;5013835;28;20030;-77
2022/06/22 18:02:24;;;;;;;11.02;5.10;;;28.00;95.10;;;;;;5013775;28;20037;-77
2022/06/22 18:04:54;;;;;;;6.03;4.95;;;28.00;95.90;;;;;;5009566;28;20041;-77
2022/06/22 18:07:28;;;;;;;8.20;5.05;;;27.90;96.30;;;;;;5013741;28;20026;-77
2022/06/22 18:09:56;;;;;;;8.57;4.88;;;27.90;96.80;;;;;;5013914;28;20028;-77
2022/06/22 18:12:26;;;;;;;16.13;5.72;;;27.90;96.90;;;;;;5013731;28;20021;-77
2022/06/22 18:15:04;;;;;;;7.07;5.28;;;27.80;96.40;;;;;;5013668;28;20480;-77
2022/06/22 18:17:31;;;;;;;6.97;5.20;;;27.80;96.10;;;;;;5013468;28;20026;-77
2022/06/22 18:20:25;;;;;;;5.40;4.82;;;27.80;96.00;;;;;;5013554;28;20037;-77
2022/06/22 18:23:03;;;;;;;8.20;5.15;;;27.80;95.90;;;;;;5013680;28;20479;-77
2022/06/22 18:25:44;;;;;;;6.13;4.78;;;27.70;95.60;;;;;;4992773;28;20026;-77
2022/06/22 18:28:20;;;;;;;8.80;5.37;;;27.80;96.30;;;;;;4988862;28;20023;-77
2022/06/22 18:31:00;;;;;;;8.77;4.75;;;27.70;96.80;;;;;;4993430;28;20034;-77
2022/06/22 18:33:30;;;;;;;12.15;4.75;;;27.70;96.90;;;;;;4993536;28;20400;-80
2022/06/22 18:36:13;;;;;;;6.30;5.30;;;27.60;96.80;;;;;;4991656;28;20053;-79
2022/06/22 18:42:05;;;;;;;9.18;5.68;;;27.50;96.80;;;;;;4976375;28;20041;-78
2022/06/22 18:44:36;;;;;;;7.70;5.30;;;27.40;96.90;;;;;;4963506;28;20034;-78
2022/06/22 18:47:28;;;;;;;5.68;4.88;;;27.40;97.10;;;;;;4984118;28;20061;-79
2022/06/22 18:50:00;;;;;;;10.82;5.60;;;27.30;97.30;;;;;;4975385;28;20492;-79
2022/06/22 18:52:39;;;;;;;9.20;5.22;;;27.30;97.20;;;;;;4980844;28;20030;-79
2022/06/22 18:55:40;;;;;;;7.63;5.43;;;27.30;96.30;;;;;;4982797;28;20034;-79
2022/06/22 18:58:18;;;;;;;10.97;5.03;;;27.20;95.70;;;;;;4923545;29;20469;-79
2022/06/22 19:00:54;;;;;;;8.48;5.10;;;27.20;96.10;;;;;;4973072;28;20687;-79
2022/06/22 19:03:28;;;;;;;10.00;5.70;;;27.20;96.90;;;;;;4972213;28;20034;-79
2022/06/22 19:06:11;;;;;;;8.25;5.60;;;27.20;97.00;;;;;;4973456;28;20551;-80
2022/06/22 19:08:45;;;;;;;11.55;5.10;;;27.10;97.10;;;;;;4997957;28;20018;-79
2022/06/22 19:11:21;;;;;;;8.13;5.55;;;27.20;97.50;;;;;;4986905;28;20086;-79
2022/06/22 19:14:02;;;;;;;6.40;4.95;;;27.10;97.80;;;;;;4977954;28;20038;-79
2022/06/22 19:16:52;;;;;;;5.70;5.13;;;27.00;97.80;;;;;;4983458;28;20101;-79
2022/06/22 19:19:57;;;;;;;9.73;5.75;;;26.90;98.00;;;;;;4995217;28;20040;-79
2022/06/22 19:23:02;;;;;;;8.20;5.50;;;26.80;97.90;;;;;;4968683;28;20038;-79
2022/06/22 19:25:57;;;;;;;12.00;5.47;;;26.80;97.80;;;;;;4997458;28;20088;-79
2022/06/22 19:28:35;;;;;;;6.30;5.63;;;26.50;98.10;;;;;;4968791;28;20031;-80
2022/06/22 19:31:35;;;;;;;6.55;5.35;;;26.60;98.10;;;;;;4997723;28;20037;-79
2022/06/22 19:34:29;;;;;;;15.98;6.40;;;26.60;97.90;;;;;;4981807;28;20030;-79
2022/06/22 19:37:11;;;;;;;7.05;5.10;;;26.50;97.60;;;;;;4981284;28;20027;-79
2022/06/22 19:40:01;;;;;;;12.88;5.18;;;26.60;97.70;;;;;;4990593;28;20034;-79
2022/06/22 19:42:41;;;;;;;11.75;4.93;;;26.50;97.70;;;;;;4983858;28;20432;-79
2022/06/22 19:45:41;;;;;;;6.93;5.35;;;26.50;98.10;;;;;;4986219;28;20116;-78
2022/06/22 19:48:07;;;;;;;9.20;5.35;;;26.40;98.20;;;;;;4983763;28;20015;-78
2022/06/22 19:51:00;;;;;;;10.68;5.55;;;26.30;98.10;;;;;;4988885;28;20019;-73
2022/06/22 19:53:52;;;;;;;5.43;4.82;;;26.30;97.90;;;;;;4982711;28;20035;-73
2022/06/22 19:56:45;;;;;;;6.78;4.35;;;26.20;97.80;;;;;;4986288;28;20500;-74
2022/06/22 19:59:13;;;;;;;9.55;5.03;;;26.20;97.80;;;;;;4976982;28;20150;-73
2022/06/22 20:01:51;;;;;;;9.10;5.70;;;26.20;97.80;;;;;;4987099;28;20790;-73
2022/06/22 20:04:37;;;;;;;6.57;4.45;;;26.10;98.00;;;;;;4985647;28;20022;-73
2022/06/22 20:07:06;;;;;;;6.30;5.13;;;26.10;98.30;;;;;;4969094;28;20025;-73
2022/06/22 20:09:51;;;;;;;5.43;4.90;;;26.10;98.50;;;;;;4985572;28;20018;-74
2022/06/22 20:12:26;;;;;;;8.60;5.53;;;26.00;98.70;;;;;;4984683;28;20015;-73
2022/06/22 20:15:04;;;;;;;5.75;5.32;;;26.00;98.90;;;;;;4980633;28;20065;-73
2022/06/22 20:17:53;;;;;;;6.07;5.47;;;25.90;98.80;;;;;;4981823;28;20050;-73
2022/06/22 20:20:46;;;;;;;5.78;5.28;;;25.90;98.90;;;;;;4979564;28;20045;-73
2022/06/22 20:23:17;;;;;;;5.95;5.40;;;25.80;99.40;;;;;;4982454;28;20038;-73
2022/06/22 20:26:14;;;;;;;9.35;5.18;;;25.70;99.20;;;;;;4978586;28;20613;-73
2022/06/22 20:29:18;;;;;;;8.60;5.40;;;25.70;99.40;;;;;;4977507;28;20006;-73
2022/06/22 20:31:47;;;;;;;6.38;5.38;;;25.80;99.70;;;;;;4988323;28;20034;-73
2022/06/22 20:34:35;;;;;;;9.45;5.82;;;25.70;99.50;;;;;;4978979;28;20027;-73
2022/06/22 20:37:15;;;;;;;9.75;5.63;;;25.60;99.40;;;;;;4986825;28;20029;-73
2022/06/22 20:39:44;;;;;;;10.98;5.45;;;25.60;99.70;;;;;;4979822;28;20023;-78
2022/06/22 20:42:22;;;;;;;5.75;5.35;;;25.60;99.70;;;;;;4979653;28;20019;-79
2022/06/22 20:45:00;;;;;;;10.77;5.53;;;25.50;99.60;;;;;;4971834;28;20038;-78
2022/06/22 20:47:59;;;;;;;10.02;6.15;;;25.60;99.40;;;;;;4960390;28;20029;-78
2022/06/22 20:50:46;;;;;;;6.18;5.65;;;25.40;99.40;;;;;;4990583;28;20076;-78
2022/06/22 20:53:41;;;;;;;8.77;8.02;;;25.30;99.70;;;;;;4969234;28;20038;-77
2022/06/22 20:56:24;;;;;;;7.55;6.45;;;25.40;99.90;;;;;;4959316;28;20039;-80
2022/06/22 20:58:57;;;;;;;7.97;5.35;;;25.40;99.90;;;;;;4973811;28;20668;-79
2022/06/22 21:01:23;;;;;;;6.13;5.53;;;25.40;99.90;;;;;;4979849;28;20689;-80
2022/06/22 21:04:00;;;;;;;6.25;5.53;;;25.30;99.90;;;;;;4982092;28;20034;-79